sensor_id;sensor_type;location;lat;lon;timestamp;pressure;altitude;pressure_sealevel;temperature;humidity
45113;BME280;30873;53.908;27.576;2023-02-11T00:01:21;1024;;;3;67.8
45113;BME280;30873;53.908;27.576;2023-02-11T00:06:57;1024;;;3;67.6
45113;BME280;30873;53.908;27.576;2023-02-11T00:11:08;1023.9;;;3;67.5
45113;BME280;30873;53.908;27.576;2023-02-11T00:16:33;1023.8;;;3;67.5
45113;BME280;30873;53.908;27.576;2023-02-11T00:21:47;1023.8;;;3.1;67.5
45113;BME280;30873;53.908;27.576;2023-02-11T00:26:34;1023.8;;;3.1;67.4
45113;BME280;30873;53.908;27.576;2023-02-11T00:31:59;1023.7;;;3.1;67.6
45113;BME280;30873;53.908;27.576;2023-02-11T00:36:57;1023.6;;;3.2;67.5
45113;BME280;30873;53.908;27.576;2023-02-11T00:41:43;1023.5;;;3.2;67.6
45113;BME280;30873;53.908;27.576;2023-02-11T00:46:07;1023.4;;;3.1;68
45113;BME280;30873;53.908;27.576;2023-02-11T00:51:59;1023.3;;;3.2;68
45113;BME280;30873;53.908;27.576;2023-02-11T00:56:07;1023.3;;;3.2;67.7
45113;BME280;30873;53.908;27.576;2023-02-11T01:01:07;1023.2;;;3.2;67.8
45113;BME280;30873;53.908;27.576;2023-02-11T01:06:57;1023.1;;;3.2;67.9
45113;BME280;30873;53.908;27.576;2023-02-11T01:11:57;1023;;;3.2;67.9
45113;BME280;30873;53.908;27.576;2023-02-11T01:16:59;1023;;;3.2;68
45113;BME280;30873;53.908;27.576;2023-02-11T01:21:33;1023;;;3.1;68.2
45113;BME280;30873;53.908;27.576;2023-02-11T01:26:59;1022.9;;;3.3;68.3
45113;BME280;30873;53.908;27.576;2023-02-11T01:31:23;1022.9;;;3.3;68
45113;BME280;30873;53.908;27.576;2023-02-11T01:36:43;1022.8;;;3.4;68
45113;BME280;30873;53.908;27.576;2023-02-11T01:41:21;1022.7;;;3.4;67.9
45113;BME280;30873;53.908;27.576;2023-02-11T01:46:43;1022.6;;;3.4;67.9
45113;BME280;30873;53.908;27.576;2023-02-11T01:51:24;1022.5;;;3.4;67.8
45113;BME280;30873;53.908;27.576;2023-02-11T01:56:57;1022.4;;;3.3;68.2
45113;BME280;30873;53.908;27.576;2023-02-11T02:01:33;1022.4;;;3.3;68.4
45113;BME280;30873;53.908;27.576;2023-02-11T02:07:00;1022.3;;;3.3;68.4
45113;BME280;30873;53.908;27.576;2023-02-11T02:11:59;1022.2;;;3.3;68.7
45113;BME280;30873;53.908;27.576;2023-02-11T02:16:35;1022.1;;;3.3;68.7
45113;BME280;30873;53.908;27.576;2023-02-11T02:22:04;1022;;;3.2;69
45113;BME280;30873;53.908;27.576;2023-02-11T02:26:13;1021.9;;;3.1;69.6
45113;BME280;30873;53.908;27.576;2023-02-11T02:31:51;1021.8;;;3;70
45113;BME280;30873;53.908;27.576;2023-02-11T02:36:08;1021.7;;;3.1;70.3
45113;BME280;30873;53.908;27.576;2023-02-11T02:41:43;1021.5;;;3.2;70.2
45113;BME280;30873;53.908;27.576;2023-02-11T02:46:33;1021.5;;;3.2;70.1
45113;BME280;30873;53.908;27.576;2023-02-11T02:52:00;1021.4;;;3.1;70.7
45113;BME280;30873;53.908;27.576;2023-02-11T02:56:29;1021.3;;;3.2;70.9
45113;BME280;30873;53.908;27.576;2023-02-11T03:01:48;1021.3;;;3.1;71
45113;BME280;30873;53.908;27.576;2023-02-11T03:06:58;1021.1;;;3.1;71.5
45113;BME280;30873;53.908;27.576;2023-02-11T03:11:33;1021.1;;;3.1;71.3
45113;BME280;30873;53.908;27.576;2023-02-11T03:16:45;1021;;;3.1;71.4
45113;BME280;30873;53.908;27.576;2023-02-11T03:21:07;1021;;;3.1;71.4
45113;BME280;30873;53.908;27.576;2023-02-11T03:26:48;1020.9;;;3.1;71.5
45113;BME280;30873;53.908;27.576;2023-02-11T03:31:08;1020.8;;;3.2;71.4
45113;BME280;30873;53.908;27.576;2023-02-11T03:36:45;1020.6;;;3.1;71.5
45113;BME280;30873;53.908;27.576;2023-02-11T03:41:18;1020.5;;;3.1;71.7
45113;BME280;30873;53.908;27.576;2023-02-11T03:46:47;1020.4;;;3;71.9
45113;BME280;30873;53.908;27.576;2023-02-11T03:51:43;1020.3;;;3;71.9
45113;BME280;30873;53.908;27.576;2023-02-11T03:57:00;1020.2;;;3.1;71.9
45113;BME280;30873;53.908;27.576;2023-02-11T04:01:59;1020.2;;;3.1;71.7
45113;BME280;30873;53.908;27.576;2023-02-11T04:06:45;1020.1;;;3.1;71.9
45113;BME280;30873;53.908;27.576;2023-02-11T04:11:47;1020;;;3.1;71.8
45113;BME280;30873;53.908;27.576;2023-02-11T04:16:07;1019.9;;;3.1;72
45113;BME280;30873;53.908;27.576;2023-02-11T04:21:45;1019.8;;;3.1;72
45113;BME280;30873;53.908;27.576;2023-02-11T04:26:21;1019.6;;;3.1;71.9
45113;BME280;30873;53.908;27.576;2023-02-11T04:31:47;1019.4;;;3.1;72.1
45113;BME280;30873;53.908;27.576;2023-02-11T04:36:33;1019.3;;;3;72.3
45113;BME280;30873;53.908;27.576;2023-02-11T04:41:57;1019.1;;;3;72.4
45113;BME280;30873;53.908;27.576;2023-02-11T04:46:33;1018.9;;;3.1;72.4
45113;BME280;30873;53.908;27.576;2023-02-11T04:51:59;1018.8;;;3.2;72
45113;BME280;30873;53.908;27.576;2023-02-11T04:56:43;1018.7;;;3.1;71.8
45113;BME280;30873;53.908;27.576;2023-02-11T05:01:07;1018.6;;;3;72.4
45113;BME280;30873;53.908;27.576;2023-02-11T05:06:33;1018.5;;;3;72.4
45113;BME280;30873;53.908;27.576;2023-02-11T05:11:17;1018.5;;;3;72.4
45113;BME280;30873;53.908;27.576;2023-02-11T05:16:47;1018.3;;;3.1;72.5
45113;BME280;30873;53.908;27.576;2023-02-11T05:21:57;1018.2;;;3;72.7
45113;BME280;30873;53.908;27.576;2023-02-11T05:26:35;1018.1;;;3;73
45113;BME280;30873;53.908;27.576;2023-02-11T05:31:31;1018;;;3;73.2
45113;BME280;30873;53.908;27.576;2023-02-11T05:36:57;1017.9;;;3;73.4
45113;BME280;30873;53.908;27.576;2023-02-11T05:41:31;1017.8;;;3.1;73.2
45113;BME280;30873;53.908;27.576;2023-02-11T05:46:21;1017.6;;;3.1;73.4
45113;BME280;30873;53.908;27.576;2023-02-11T05:51:33;1017.6;;;3.1;73.5
45113;BME280;30873;53.908;27.576;2023-02-11T05:56:35;1017.5;;;3.1;73.5
45113;BME280;30873;53.908;27.576;2023-02-11T06:01:33;1017.4;;;3.1;73.7
45113;BME280;30873;53.908;27.576;2023-02-11T06:06:21;1017.3;;;3.1;79
45113;BME280;30873;53.908;27.576;2023-02-11T06:11:07;1017.2;;;3.2;87
45113;BME280;30873;53.908;27.576;2023-02-11T06:16:59;1017.1;;;3.2;77.2
45113;BME280;30873;53.908;27.576;2023-02-11T06:21:21;1017.1;;;3.3;76.4
45113;BME280;30873;53.908;27.576;2023-02-11T06:26:59;1017;;;3.4;76
45113;BME280;30873;53.908;27.576;2023-02-11T06:31:53;1016.9;;;3.4;75.3
45113;BME280;30873;53.908;27.576;2023-02-11T06:36:43;1016.8;;;3.4;75.3
45113;BME280;30873;53.908;27.576;2023-02-11T06:41:21;1016.8;;;3.3;75.3
45113;BME280;30873;53.908;27.576;2023-02-11T06:46:35;1016.7;;;3.4;75.7
45113;BME280;30873;53.908;27.576;2023-02-11T06:51:31;1016.6;;;3.5;75.3
45113;BME280;30873;53.908;27.576;2023-02-11T06:56:33;1016.4;;;3.5;75.2
45113;BME280;30873;53.908;27.576;2023-02-11T07:01:31;1016.3;;;3.7;75.8
45113;BME280;30873;53.908;27.576;2023-02-11T07:06:33;1016.3;;;4.5;76.2
45113;BME280;30873;53.908;27.576;2023-02-11T07:11:57;1016.2;;;4.8;73.9
45113;BME280;30873;53.908;27.576;2023-02-11T07:16:08;1016.2;;;4.5;72
45113;BME280;30873;53.908;27.576;2023-02-11T07:21:57;1016;;;4.1;72.4
45113;BME280;30873;53.908;27.576;2023-02-11T07:26:59;1015.9;;;4.1;73.1
45113;BME280;30873;53.908;27.576;2023-02-11T07:31:43;1015.8;;;4;73.3
45113;BME280;30873;53.908;27.576;2023-02-11T07:36:33;1015.8;;;4;73.5
45113;BME280;30873;53.908;27.576;2023-02-11T07:41:59;1015.8;;;3.9;73.7
45113;BME280;30873;53.908;27.576;2023-02-11T07:46:33;1015.7;;;4;74
45113;BME280;30873;53.908;27.576;2023-02-11T07:51:33;1015.5;;;4;74.2
45113;BME280;30873;53.908;27.576;2023-02-11T07:56:59;1015.4;;;4;74.6
45113;BME280;30873;53.908;27.576;2023-02-11T08:01:45;1015.3;;;4.1;74.8
45113;BME280;30873;53.908;27.576;2023-02-11T08:06:43;1015.2;;;4.1;74.8
45113;BME280;30873;53.908;27.576;2023-02-11T08:11:23;1015.2;;;4.1;75.2
45113;BME280;30873;53.908;27.576;2023-02-11T08:16:57;1015.1;;;4.2;75.4
45113;BME280;30873;53.908;27.576;2023-02-11T08:21:07;1015;;;4.2;75.2
45113;BME280;30873;53.908;27.576;2023-02-11T08:26:45;1014.9;;;4.3;75.1
45113;BME280;30873;53.908;27.576;2023-02-11T08:31:07;1014.6;;;4.4;74.7
45113;BME280;30873;53.908;27.576;2023-02-11T08:36:45;1014.6;;;4.3;74.8
45113;BME280;30873;53.908;27.576;2023-02-11T08:41:17;1014.5;;;4.2;74.9
45113;BME280;30873;53.908;27.576;2023-02-11T08:46:55;1014.3;;;4.3;75.5
45113;BME280;30873;53.908;27.576;2023-02-11T08:51:43;1014.2;;;4.4;75.4
45113;BME280;30873;53.908;27.576;2023-02-11T08:56:43;1014;;;4.5;75
45113;BME280;30873;53.908;27.576;2023-02-11T09:01:45;1013.9;;;4.6;74.8
45113;BME280;30873;53.908;27.576;2023-02-11T09:06:45;1013.9;;;4.7;74.6
45113;BME280;30873;53.908;27.576;2023-02-11T09:11:45;1013.9;;;4.6;74.1
45113;BME280;30873;53.908;27.576;2023-02-11T09:16:30;1013.7;;;4.5;75.2
45113;BME280;30873;53.908;27.576;2023-02-11T09:21:41;1013.6;;;4.6;74.7
45113;BME280;30873;53.908;27.576;2023-02-11T09:26:31;1013.5;;;4.7;74.3
45113;BME280;30873;53.908;27.576;2023-02-11T09:31:41;1013.4;;;4.8;73.8
45113;BME280;30873;53.908;27.576;2023-02-11T09:36:45;1013.3;;;4.8;73.7
45113;BME280;30873;53.908;27.576;2023-02-11T09:41:53;1013.2;;;4.8;73.4
45113;BME280;30873;53.908;27.576;2023-02-11T09:46:43;1013;;;4.8;73.8
45113;BME280;30873;53.908;27.576;2023-02-11T09:52:01;1012.9;;;4.9;73.7
45113;BME280;30873;53.908;27.576;2023-02-11T09:56:59;1012.8;;;4.9;73.9
45113;BME280;30873;53.908;27.576;2023-02-11T10:01:36;1012.8;;;4.9;73.7
45113;BME280;30873;53.908;27.576;2023-02-11T10:07:00;1012.6;;;4.8;73.8
45113;BME280;30873;53.908;27.576;2023-02-11T10:11:07;1012.5;;;4.8;74
45113;BME280;30873;53.908;27.576;2023-02-11T10:16:50;1012.4;;;4.7;73.9
45113;BME280;30873;53.908;27.576;2023-02-11T10:21:11;1012.3;;;4.7;73.9
45113;BME280;30873;53.908;27.576;2023-02-11T10:26:57;1012.3;;;4.7;74.1
45113;BME280;30873;53.908;27.576;2023-02-11T10:31:08;1012.3;;;4.6;74.4
45113;BME280;30873;53.908;27.576;2023-02-11T10:36:57;1012.2;;;4.4;75.9
45113;BME280;30873;53.908;27.576;2023-02-11T10:41:33;1012.1;;;4.4;76.2
45113;BME280;30873;53.908;27.576;2023-02-11T10:46:58;1012;;;4.5;76
45113;BME280;30873;53.908;27.576;2023-02-11T10:52:09;1011.9;;;4.6;76.1
45113;BME280;30873;53.908;27.576;2023-02-11T10:56:33;1011.8;;;4.6;75.6
45113;BME280;30873;53.908;27.576;2023-02-11T11:01:59;1011.8;;;4.5;75.5
45113;BME280;30873;53.908;27.576;2023-02-11T11:06:28;1011.7;;;4.4;76.2
45113;BME280;30873;53.908;27.576;2023-02-11T11:11:50;1011.6;;;4.4;76
45113;BME280;30873;53.908;27.576;2023-02-11T11:16:21;1011.5;;;4.4;76.7
45113;BME280;30873;53.908;27.576;2023-02-11T11:21:57;1011.4;;;4.4;77.4
45113;BME280;30873;53.908;27.576;2023-02-11T11:26:43;1011.2;;;4.5;77.4
45113;BME280;30873;53.908;27.576;2023-02-11T11:31:57;1011.1;;;4.5;76.4
45113;BME280;30873;53.908;27.576;2023-02-11T11:36:31;1011;;;4.5;76
45113;BME280;30873;53.908;27.576;2023-02-11T11:41:57;1011;;;4.5;75.8
45113;BME280;30873;53.908;27.576;2023-02-11T11:46:35;1010.9;;;4.6;75.6
45113;BME280;30873;53.908;27.576;2023-02-11T11:51:19;1010.8;;;4.7;75.3
45113;BME280;30873;53.908;27.576;2023-02-11T11:56:33;1010.7;;;4.9;74.8
45113;BME280;30873;53.908;27.576;2023-02-11T12:01:21;1010.7;;;4.8;75.1
45113;BME280;30873;53.908;27.576;2023-02-11T12:06:36;1010.6;;;4.8;74.6
45113;BME280;30873;53.908;27.576;2023-02-11T12:12:03;1010.5;;;4.8;74.5
45113;BME280;30873;53.908;27.576;2023-02-11T12:16:45;1010.4;;;4.8;74.7
45113;BME280;30873;53.908;27.576;2023-02-11T12:21:34;1010.2;;;4.7;74.5
45113;BME280;30873;53.908;27.576;2023-02-11T12:27:00;1010.2;;;4.6;74.8
45113;BME280;30873;53.908;27.576;2023-02-11T12:31:22;1010.1;;;4.5;75.7
45113;BME280;30873;53.908;27.576;2023-02-11T12:36:37;1010.1;;;4.5;76
45113;BME280;30873;53.908;27.576;2023-02-11T12:41:21;1010.1;;;4.7;75.6
45113;BME280;30873;53.908;27.576;2023-02-11T12:46:37;1010;;;4.7;74.9
45113;BME280;30873;53.908;27.576;2023-02-11T12:51:09;1009.9;;;4.7;74.8
45113;BME280;30873;53.908;27.576;2023-02-11T12:56:09;1009.9;;;4.5;75.2
45113;BME280;30873;53.908;27.576;2023-02-11T13:01:08;1009.8;;;4.5;75.7
45113;BME280;30873;53.908;27.576;2023-02-11T13:06:59;1009.8;;;4.5;75.7
45113;BME280;30873;53.908;27.576;2023-02-11T13:11:17;1009.8;;;4.4;75.8
45113;BME280;30873;53.908;27.576;2023-02-11T13:16:43;1009.8;;;4.4;76.5
45113;BME280;30873;53.908;27.576;2023-02-11T13:22:01;1009.7;;;4.4;76.2
45113;BME280;30873;53.908;27.576;2023-02-11T13:26:44;1009.6;;;4.5;75.8
45113;BME280;30873;53.908;27.576;2023-02-11T13:31:21;1009.6;;;4.4;75.9
45113;BME280;30873;53.908;27.576;2023-02-11T13:36:59;1009.6;;;4.4;76
45113;BME280;30873;53.908;27.576;2023-02-11T13:41:45;1009.6;;;4.4;76.1
45113;BME280;30873;53.908;27.576;2023-02-11T13:46:17;1009.6;;;4.4;76.4
45113;BME280;30873;53.908;27.576;2023-02-11T13:51:57;1009.6;;;4.4;76.4
45113;BME280;30873;53.908;27.576;2023-02-11T13:56:43;1009.5;;;4.4;76.6
45113;BME280;30873;53.908;27.576;2023-02-11T14:02:00;1009.5;;;4.4;76.3
45113;BME280;30873;53.908;27.576;2023-02-11T14:06:33;1009.4;;;4.4;76.4
45113;BME280;30873;53.908;27.576;2023-02-11T14:12:32;1009.4;;;4.3;76.6
45113;BME280;30873;53.908;27.576;2023-02-11T14:16:21;1009.4;;;4.3;76.8
45113;BME280;30873;53.908;27.576;2023-02-11T14:21:45;1009.4;;;4.3;76.7
45113;BME280;30873;53.908;27.576;2023-02-11T14:26:24;1009.5;;;4.3;76.8
45113;BME280;30873;53.908;27.576;2023-02-11T14:31:47;1009.5;;;4.3;76.8
45113;BME280;30873;53.908;27.576;2023-02-11T14:36:11;1009.5;;;4.4;76.9
45113;BME280;30873;53.908;27.576;2023-02-11T14:41:47;1009.5;;;4.4;76.7
45113;BME280;30873;53.908;27.576;2023-02-11T14:46:45;1009.5;;;4.4;76.8
45113;BME280;30873;53.908;27.576;2023-02-11T14:51:43;1009.5;;;4.3;76.9
45113;BME280;30873;53.908;27.576;2023-02-11T14:56:33;1009.5;;;4.4;76.9
45113;BME280;30873;53.908;27.576;2023-02-11T15:01:33;1009.5;;;4.4;76.8
45113;BME280;30873;53.908;27.576;2023-02-11T15:07:02;1009.5;;;4.4;76.8
45113;BME280;30873;53.908;27.576;2023-02-11T15:11:08;1009.3;;;4.4;76.8
45113;BME280;30873;53.908;27.576;2023-02-11T15:16:43;1009.3;;;4.4;77.1
45113;BME280;30873;53.908;27.576;2023-02-11T15:21:07;1009.4;;;4.5;77.1
45113;BME280;30873;53.908;27.576;2023-02-11T15:26:29;1009.4;;;4.4;77.4
45113;BME280;30873;53.908;27.576;2023-02-11T15:31:19;1009.5;;;4.5;77.5
45113;BME280;30873;53.908;27.576;2023-02-11T15:36:59;1009.6;;;4.5;77.2
45113;BME280;30873;53.908;27.576;2023-02-11T15:41:32;1009.5;;;4.5;77.2
45113;BME280;30873;53.908;27.576;2023-02-11T15:46:43;1009.5;;;4.5;77.2
45113;BME280;30873;53.908;27.576;2023-02-11T15:51:59;1009.6;;;4.5;77.4
45113;BME280;30873;53.908;27.576;2023-02-11T15:56:43;1009.7;;;4.6;77.3
45113;BME280;30873;53.908;27.576;2023-02-11T16:01:47;1009.7;;;4.5;77.5
45113;BME280;30873;53.908;27.576;2023-02-11T16:06:15;1009.8;;;4.6;77.6
45113;BME280;30873;53.908;27.576;2023-02-11T16:11:52;1009.7;;;4.7;77.4
45113;BME280;30873;53.908;27.576;2023-02-11T16:16:21;1009.7;;;4.7;77.6
45113;BME280;30873;53.908;27.576;2023-02-11T16:21:45;1009.7;;;4.7;77.9
45113;BME280;30873;53.908;27.576;2023-02-11T16:26:45;1009.8;;;4.7;78.2
45113;BME280;30873;53.908;27.576;2023-02-11T16:31:47;1009.8;;;4.7;78.8
45113;BME280;30873;53.908;27.576;2023-02-11T16:36:45;1009.9;;;4.7;78.7
45113;BME280;30873;53.908;27.576;2023-02-11T16:41:57;1010;;;4.8;78.7
45113;BME280;30873;53.908;27.576;2023-02-11T16:46:59;1010.1;;;4.9;78.3
45113;BME280;30873;53.908;27.576;2023-02-11T16:51:21;1010.1;;;4.9;77.9
45113;BME280;30873;53.908;27.576;2023-02-11T16:56:59;1010.2;;;5;78.1
45113;BME280;30873;53.908;27.576;2023-02-11T17:01:19;1010.2;;;5;77.9
45113;BME280;30873;53.908;27.576;2023-02-11T17:06:47;1010.3;;;5;78
45113;BME280;30873;53.908;27.576;2023-02-11T17:11:21;1010.4;;;5;78.3
45113;BME280;30873;53.908;27.576;2023-02-11T17:16:57;1010.5;;;5;78.2
45113;BME280;30873;53.908;27.576;2023-02-11T17:21:33;1010.6;;;5;78.2
45113;BME280;30873;53.908;27.576;2023-02-11T17:26:57;1010.8;;;5;78.1
45113;BME280;30873;53.908;27.576;2023-02-11T17:31:19;1010.9;;;4.9;78
45113;BME280;30873;53.908;27.576;2023-02-11T17:36:59;1010.9;;;4.9;78.3
45113;BME280;30873;53.908;27.576;2023-02-11T17:41:35;1011;;;4.9;78.4
45113;BME280;30873;53.908;27.576;2023-02-11T17:46:07;1011.1;;;5;78.2
45113;BME280;30873;53.908;27.576;2023-02-11T17:51:16;1011.3;;;5;78
45113;BME280;30873;53.908;27.576;2023-02-11T17:56:31;1011.4;;;5;77.9
45113;BME280;30873;53.908;27.576;2023-02-11T18:01:59;1011.5;;;5;78
45113;BME280;30873;53.908;27.576;2023-02-11T18:06:59;1011.6;;;5;78
45113;BME280;30873;53.908;27.576;2023-02-11T18:11:43;1011.8;;;5;78
45113;BME280;30873;53.908;27.576;2023-02-11T18:16:33;1012;;;5;77.9
45113;BME280;30873;53.908;27.576;2023-02-11T18:21:57;1012.2;;;5.1;77.5
45113;BME280;30873;53.908;27.576;2023-02-11T18:26:33;1012.4;;;5.1;77
45113;BME280;30873;53.908;27.576;2023-02-11T18:31:19;1012.6;;;5.1;76.5
45113;BME280;30873;53.908;27.576;2023-02-11T18:36:35;1012.7;;;5.1;75.9
45113;BME280;30873;53.908;27.576;2023-02-11T18:41:19;1012.8;;;5;75.6
45113;BME280;30873;53.908;27.576;2023-02-11T18:46:21;1013;;;5.1;75.6
45113;BME280;30873;53.908;27.576;2023-02-11T18:51:33;1013.2;;;5;75.3
45113;BME280;30873;53.908;27.576;2023-02-11T18:56:33;1013.3;;;5;75.3
45113;BME280;30873;53.908;27.576;2023-02-11T19:01:47;1013.5;;;5;75.4
45113;BME280;30873;53.908;27.576;2023-02-11T19:06:46;1013.7;;;5;75.5
45113;BME280;30873;53.908;27.576;2023-02-11T19:11:33;1013.8;;;4.8;75.6
45113;BME280;30873;53.908;27.576;2023-02-11T19:16:47;1013.9;;;4.7;75.6
45113;BME280;30873;53.908;27.576;2023-02-11T19:21:33;1014.1;;;4.6;75.1
45113;BME280;30873;53.908;27.576;2023-02-11T19:26:22;1014.3;;;4.7;74.8
45113;BME280;30873;53.908;27.576;2023-02-11T19:31:33;1014.3;;;4.6;74.3
45113;BME280;30873;53.908;27.576;2023-02-11T19:36:21;1014.5;;;4.6;73.9
45113;BME280;30873;53.908;27.576;2023-02-11T19:41:35;1014.7;;;4.6;73.9
45113;BME280;30873;53.908;27.576;2023-02-11T19:46:07;1014.9;;;4.6;74.1
45113;BME280;30873;53.908;27.576;2023-02-11T19:51:33;1015;;;4.6;74.3
45113;BME280;30873;53.908;27.576;2023-02-11T19:56:57;1015.1;;;4.6;74.2
45113;BME280;30873;53.908;27.576;2023-02-11T20:01:31;1015.3;;;4.7;73.5
45113;BME280;30873;53.908;27.576;2023-02-11T20:06:59;1015.5;;;4.7;73.2
45113;BME280;30873;53.908;27.576;2023-02-11T20:11:45;1015.7;;;4.7;73.3
45113;BME280;30873;53.908;27.576;2023-02-11T20:16:43;1015.8;;;4.6;73.3
45113;BME280;30873;53.908;27.576;2023-02-11T20:21:22;1016;;;4.3;71.8
45113;BME280;30873;53.908;27.576;2023-02-11T20:26:59;1016.2;;;4;70.3
45113;BME280;30873;53.908;27.576;2023-02-11T20:31:35;1016.4;;;3.8;69.6
45113;BME280;30873;53.908;27.576;2023-02-11T20:36:19;1016.6;;;3.5;69.3
45113;BME280;30873;53.908;27.576;2023-02-11T20:41:57;1016.8;;;3.5;69.5
45113;BME280;30873;53.908;27.576;2023-02-11T20:46:45;1016.9;;;3.6;69.2
45113;BME280;30873;53.908;27.576;2023-02-11T20:51:45;1017.1;;;3.4;68.4
45113;BME280;30873;53.908;27.576;2023-02-11T20:56:35;1017.3;;;3.2;67.1
45113;BME280;30873;53.908;27.576;2023-02-11T21:02:00;1017.5;;;3;66.1
45113;BME280;30873;53.908;27.576;2023-02-11T21:06:21;1017.7;;;2.8;65.4
45113;BME280;30873;53.908;27.576;2023-02-11T21:11:43;1018;;;2.7;65.1
45113;BME280;30873;53.908;27.576;2023-02-11T21:16:31;1018.1;;;2.8;65.3
45113;BME280;30873;53.908;27.576;2023-02-11T21:21:45;1018.3;;;2.9;65.2
45113;BME280;30873;53.908;27.576;2023-02-11T21:26:21;1018.4;;;2.9;65.4
45113;BME280;30873;53.908;27.576;2023-02-11T21:31:55;1018.6;;;2.9;66.1
45113;BME280;30873;53.908;27.576;2023-02-11T21:36:45;1018.7;;;2.6;66.3
45113;BME280;30873;53.908;27.576;2023-02-11T21:41:45;1018.8;;;2.4;66.3
45113;BME280;30873;53.908;27.576;2023-02-11T21:46:59;1018.9;;;2.2;66.1
45113;BME280;30873;53.908;27.576;2023-02-11T21:51:08;1019.1;;;2.1;66.1
45113;BME280;30873;53.908;27.576;2023-02-11T21:56:45;1019.3;;;1.9;66.2
45113;BME280;30873;53.908;27.576;2023-02-11T22:01:30;1019.4;;;1.8;66.2
45113;BME280;30873;53.908;27.576;2023-02-11T22:06:59;1019.6;;;1.8;66.3
45113;BME280;30873;53.908;27.576;2023-02-11T22:11:33;1019.7;;;1.7;66
45113;BME280;30873;53.908;27.576;2023-02-11T22:16:45;1019.8;;;1.6;65.7
45113;BME280;30873;53.908;27.576;2023-02-11T22:21:31;1020;;;1.6;65.5
45113;BME280;30873;53.908;27.576;2023-02-11T22:26:47;1020.1;;;1.5;65.3
45113;BME280;30873;53.908;27.576;2023-02-11T22:31:45;1020.3;;;1.5;65.3
45113;BME280;30873;53.908;27.576;2023-02-11T22:36:59;1020.3;;;1.4;65.7
45113;BME280;30873;53.908;27.576;2023-02-11T22:41:59;1020.4;;;1.3;66
45113;BME280;30873;53.908;27.576;2023-02-11T22:46:21;1020.5;;;1.3;65.9
45113;BME280;30873;53.908;27.576;2023-02-11T22:51:57;1020.6;;;1.2;65.7
45113;BME280;30873;53.908;27.576;2023-02-11T22:56:21;1020.7;;;1.2;65.5
45113;BME280;30873;53.908;27.576;2023-02-11T23:01:43;1020.9;;;1.2;65.4
45113;BME280;30873;53.908;27.576;2023-02-11T23:06:07;1021.1;;;1.2;65.4
45113;BME280;30873;53.908;27.576;2023-02-11T23:11:57;1021.2;;;1.1;65.5
45113;BME280;30873;53.908;27.576;2023-02-11T23:16:17;1021.4;;;1;65.8
45113;BME280;30873;53.908;27.576;2023-02-11T23:21:32;1021.5;;;1;65.9
45113;BME280;30873;53.908;27.576;2023-02-11T23:26:31;1021.7;;;0.9;66
45113;BME280;30873;53.908;27.576;2023-02-11T23:31:57;1021.8;;;0.9;66.1
45113;BME280;30873;53.908;27.576;2023-02-11T23:36:45;1022;;;0.9;66.2
45113;BME280;30873;53.908;27.576;2023-02-11T23:41:07;1022.1;;;1;66.2
45113;BME280;30873;53.908;27.576;2023-02-11T23:46:33;1022.2;;;1.1;66.1
45113;BME280;30873;53.908;27.576;2023-02-11T23:51:07;1022.3;;;1.2;65.7
45113;BME280;30873;53.908;27.576;2023-02-11T23:56:47;1022.5;;;1.2;65.5
